Kongen — LCDE — position and weather

sailwx.info

Track history (hours):
 
Tides and Currents Weather Stations Pressure Air Temp Water Temp Dewpoint Dewpoint Depression Visibility Wind Speed Wind Dir Waves Ship Positions

Kongen

Last reported at 2015-Jan-31 14:33 UTC. Time now 2015-Jan-31 14:42 UTC.
Position N 59°55' E 010°44'.

Length 50 m; draft 3.2 m.

Type: Passenger vessel. MMSI: 258509000.

Date/timePositionNaut miles runAvg speedWind from/ knotsBaromVisibWave heightAir tempDewpointWater temp
2015-Jan-31 14:33N 59°55' E 010°44'0 0.0
2015-Jan-31 13:33N 59°55' E 010°44'0 0.0
2015-Jan-31 12:24N 59°55' E 010°44'0 0.0
2015-Jan-31 11:27N 59°55' E 010°44'0 0.0
2015-Jan-31 10:27N 59°55' E 010°44'0 0.0
2015-Jan-31 09:24N 59°55' E 010°44'0 0.0
2015-Jan-31 08:30N 59°55' E 010°44'0 0.0
2015-Jan-31 07:15N 59°55' E 010°44'0 0.0
2015-Jan-31 06:27N 59°55' E 010°44'0 0.0
2015-Jan-31 05:30N 59°55' E 010°44'0 0.0
2015-Jan-31 04:33N 59°55' E 010°44'0 0.0
2015-Jan-31 03:33N 59°55' E 010°44'0 0.1
2015-Jan-31 02:33N 59°55' E 010°44'0 0.0
2015-Jan-31 01:34N 59°54' E 010°44'0 0.0
2015-Jan-31 00:33N 59°55' E 010°44'0 0.1
2015-Jan-30 23:34N 59°54' E 010°44'0 0.1
2015-Jan-30 22:18N 59°55' E 010°44'0 0.0
2015-Jan-30 21:33N 59°55' E 010°44'0 0.0
2015-Jan-30 20:24N 59°55' E 010°44'0 0.0
2015-Jan-30 19:12N 59°55' E 010°44'2 3.7
2015-Jan-30 18:32N 59°53' E 010°40'0 0.0
2015-Jan-30 17:19N 59°53' E 010°40'1 0.7
2015-Jan-30 16:22N 59°52' E 010°39'2 2.5
2015-Jan-30 15:33N 59°54' E 010°42'1 1.1
2015-Jan-30 14:33N 59°55' E 010°44'0 0.0
2015-Jan-30 13:19N 59°55' E 010°44'0 0.0
2015-Jan-30 12:25N 59°55' E 010°44'0 0.0
2015-Jan-30 11:22N 59°55' E 010°44'0 0.0
2015-Jan-30 10:10N 59°55' E 010°44'0 0.0
2015-Jan-30 09:25N 59°55' E 010°44'0 0.0
2015-Jan-30 08:25N 59°55' E 010°44'3 3.2
2015-Jan-30 07:30N 59°53' E 010°40'0 0.2
2015-Jan-30 06:30N 59°53' E 010°40'0 0.0
2015-Jan-30 05:19N 59°53' E 010°40'0 0.0
2015-Jan-29 18:19N 59°53' E 010°40'0 0.2
2015-Jan-29 17:20N 59°53' E 010°40'0 0.1
2015-Jan-29 16:10N 59°53' E 010°40'2 2.6
2015-Jan-29 15:33N 59°54' E 010°42'1 1.1
2015-Jan-29 14:33N 59°55' E 010°44'0 0.0
2015-Jan-29 13:25N 59°55' E 010°44'0 0.0
2015-Jan-29 12:28N 59°55' E 010°44'0 0.0
2015-Jan-29 11:28N 59°55' E 010°44'1 0.3
2015-Jan-29 09:33N 59°54' E 010°43'0 0.2
2015-Jan-29 08:33N 59°54' E 010°43'2 2.4
2015-Jan-29 07:31N 59°52' E 010°40'1 0.8
2015-Jan-29 06:26N 59°53' E 010°41'1 0.6
2015-Jan-29 05:20N 59°53' E 010°40'0 0.1
2015-Jan-29 04:33N 59°53' E 010°40'0 0.0
2015-Jan-28 18:21N 59°52' E 010°40'0 0.1
2015-Jan-28 17:23N 59°52' E 010°39'0 0.1
2015-Jan-28 16:12N 59°52' E 010°40'2 3.1
2015-Jan-28 15:33N 59°54' E 010°42'1 1.1
2015-Jan-28 14:33N 59°55' E 010°44'0 0.0
2015-Jan-28 13:31N 59°55' E 010°44'0 0.0
2015-Jan-28 12:31N 59°55' E 010°44'0 0.0
2015-Jan-28 11:31N 59°55' E 010°44'0 0.0
2015-Jan-28 10:31N 59°55' E 010°44'0 0.0
2015-Jan-28 09:31N 59°55' E 010°44'0 0.0
2015-Jan-28 08:33N 59°55' E 010°44'3 2.8
2015-Jan-28 07:31N 59°53' E 010°40'0 0.3
2015-Jan-28 06:29N 59°53' E 010°40'1 0.6
2015-Jan-28 05:31N 59°52' E 010°39'0 0.0
2015-Jan-28 04:31N 59°52' E 010°39'0 0.0
2015-Jan-28 03:25N 59°52' E 010°39'0 0.0
2015-Jan-28 02:22N 59°52' E 010°39'0 0.0
2015-Jan-28 01:28N 59°52' E 010°39'0 0.0
2015-Jan-28 00:10N 59°52' E 010°39'0 0.0
2015-Jan-27 23:25N 59°52' E 010°39'0 0.0
2015-Jan-27 22:13N 59°52' E 010°39'0 0.0
2015-Jan-27 21:16N 59°52' E 010°39'0 0.0
2015-Jan-27 20:28N 59°52' E 010°39'0 0.0
2015-Jan-27 19:16N 59°52' E 010°39'0 0.0
2015-Jan-27 18:28N 59°52' E 010°39'0 0.0
2015-Jan-27 17:30N 59°52' E 010°39'0 0.0
2015-Jan-27 16:25N 59°52' E 010°39'2 2.3
2015-Jan-27 15:33N 59°54' E 010°42'1 1.2
2015-Jan-27 14:34N 59°55' E 010°44'0 0.0
2015-Jan-27 13:29N 59°55' E 010°44'0 0.0
2015-Jan-27 12:29N 59°55' E 010°44'0 0.0
2015-Jan-27 11:14N 59°55' E 010°44'0 0.0
2015-Jan-27 10:32N 59°55' E 010°44'0 0.0
2015-Jan-27 09:32N 59°55' E 010°44'3 2.9
2015-Jan-27 08:33N 59°52' E 010°41'1 0.9
2015-Jan-27 07:31N 59°52' E 010°40'0 0.3
2015-Jan-27 06:29N 59°53' E 010°40'0 0.3
2015-Jan-27 05:17N 59°53' E 010°40'1 1.0
2015-Jan-27 04:21N 59°52' E 010°39'1 0.1
2015-Jan-26 18:16N 59°53' E 010°41'0 0.2
2015-Jan-26 17:17N 59°53' E 010°40'1 1.0
2015-Jan-26 16:32N 59°52' E 010°40'1 1.4
2015-Jan-26 15:31N 59°54' E 010°42'1 1.6
2015-Jan-26 14:33N 59°55' E 010°44'0 0.0
2015-Jan-26 13:33N 59°55' E 010°44'0 0.0
2015-Jan-26 12:06N 59°55' E 010°44'0 0.0
2015-Jan-26 11:33N 59°55' E 010°44'0 0.0
2015-Jan-26 10:24N 59°55' E 010°44'0 0.0
2015-Jan-26 09:21N 59°55' E 010°44'0 0.0
2015-Jan-26 08:27N 59°55' E 010°44'3 2.7
2015-Jan-26 07:29N 59°53' E 010°40'0 0.3
2015-Jan-26 06:27N 59°53' E 010°40'0 0.0
2015-Jan-26 04:03N 59°53' E 010°40'  
2015-Jan-23 14:28N 59°53' E 010°40'1 0.2
2015-Jan-23 11:09N 59°53' E 010°41'1 0.5
2015-Jan-23 10:06N 59°53' E 010°40'0 0.3
2015-Jan-23 09:05N 59°53' E 010°40'0 0.1
2015-Jan-23 07:25N 59°53' E 010°40'1 0.7
2015-Jan-23 06:30N 59°53' E 010°41'1 0.0
2015-Jan-22 18:06N 59°53' E 010°41'0 0.1
2015-Jan-22 17:06N 59°53' E 010°40'0 0.5
2015-Jan-22 16:09N 59°53' E 010°41'0 0.2
2015-Jan-22 15:10N 59°53' E 010°41'1 0.6
2015-Jan-22 14:06N 59°53' E 010°40'0 0.4
2015-Jan-22 13:09N 59°53' E 010°41'2 2.4
2015-Jan-22 12:23N 59°55' E 010°44'0 0.0
2015-Jan-22 11:27N 59°55' E 010°44'1 0.4
2015-Jan-22 09:20N 59°54' E 010°43'1 0.8
2015-Jan-22 08:09N 59°53' E 010°41'0 0.1
2015-Jan-22 07:10N 59°53' E 010°41'2 2.9
2015-Jan-22 06:32N 59°55' E 010°44'0 0.1
2015-Jan-22 05:33N 59°55' E 010°44'3 0.2
2015-Jan-21 16:32N 59°52' E 010°40'0 0.1
2015-Jan-21 15:32N 59°52' E 010°39'  
Track history (hours):
 
Tides and Currents Weather Stations Pressure Air Temp Water Temp Dewpoint Dewpoint Depression Visibility Wind Speed Wind Dir Waves Ship Positions

Kongen

Last reported at 2015-Jan-31 14:33 UTC. Time now 2015-Jan-31 14:42 UTC.
Position N 59°55' E 010°44'.

Length 50 m; draft 3.2 m.

Type: Passenger vessel. MMSI: 258509000.

Date/timePositionNaut miles runAvg speedWind from/ knotsBaromVisibWave heightAir tempDewpointWater temp
2015-Jan-31 14:33N 59°55' E 010°44'0 0.0
2015-Jan-31 13:33N 59°55' E 010°44'0 0.0
2015-Jan-31 12:24N 59°55' E 010°44'0 0.0
2015-Jan-31 11:27N 59°55' E 010°44'0 0.0
2015-Jan-31 10:27N 59°55' E 010°44'0 0.0
2015-Jan-31 09:24N 59°55' E 010°44'0 0.0
2015-Jan-31 08:30N 59°55' E 010°44'0 0.0
2015-Jan-31 07:15N 59°55' E 010°44'0 0.0
2015-Jan-31 06:27N 59°55' E 010°44'0 0.0
2015-Jan-31 05:30N 59°55' E 010°44'0 0.0
2015-Jan-31 04:33N 59°55' E 010°44'0 0.0
2015-Jan-31 03:33N 59°55' E 010°44'0 0.1
2015-Jan-31 02:33N 59°55' E 010°44'0 0.0
2015-Jan-31 01:34N 59°54' E 010°44'0 0.0
2015-Jan-31 00:33N 59°55' E 010°44'0 0.1
2015-Jan-30 23:34N 59°54' E 010°44'0 0.1
2015-Jan-30 22:18N 59°55' E 010°44'0 0.0
2015-Jan-30 21:33N 59°55' E 010°44'0 0.0
2015-Jan-30 20:24N 59°55' E 010°44'0 0.0
2015-Jan-30 19:12N 59°55' E 010°44'2 3.7
2015-Jan-30 18:32N 59°53' E 010°40'0 0.0
2015-Jan-30 17:19N 59°53' E 010°40'1 0.7
2015-Jan-30 16:22N 59°52' E 010°39'2 2.5
2015-Jan-30 15:33N 59°54' E 010°42'1 1.1
2015-Jan-30 14:33N 59°55' E 010°44'0 0.0
2015-Jan-30 13:19N 59°55' E 010°44'0 0.0
2015-Jan-30 12:25N 59°55' E 010°44'0 0.0
2015-Jan-30 11:22N 59°55' E 010°44'0 0.0
2015-Jan-30 10:10N 59°55' E 010°44'0 0.0
2015-Jan-30 09:25N 59°55' E 010°44'0 0.0
2015-Jan-30 08:25N 59°55' E 010°44'3 3.2
2015-Jan-30 07:30N 59°53' E 010°40'0 0.2
2015-Jan-30 06:30N 59°53' E 010°40'0 0.0
2015-Jan-30 05:19N 59°53' E 010°40'0 0.0
2015-Jan-29 18:19N 59°53' E 010°40'0 0.2
2015-Jan-29 17:20N 59°53' E 010°40'0 0.1
2015-Jan-29 16:10N 59°53' E 010°40'2 2.6
2015-Jan-29 15:33N 59°54' E 010°42'1 1.1
2015-Jan-29 14:33N 59°55' E 010°44'0 0.0
2015-Jan-29 13:25N 59°55' E 010°44'0 0.0
2015-Jan-29 12:28N 59°55' E 010°44'0 0.0
2015-Jan-29 11:28N 59°55' E 010°44'1 0.3
2015-Jan-29 09:33N 59°54' E 010°43'0 0.2
2015-Jan-29 08:33N 59°54' E 010°43'2 2.4
2015-Jan-29 07:31N 59°52' E 010°40'1 0.8
2015-Jan-29 06:26N 59°53' E 010°41'1 0.6
2015-Jan-29 05:20N 59°53' E 010°40'0 0.1
2015-Jan-29 04:33N 59°53' E 010°40'0 0.0
2015-Jan-28 18:21N 59°52' E 010°40'0 0.1
2015-Jan-28 17:23N 59°52' E 010°39'0 0.1
2015-Jan-28 16:12N 59°52' E 010°40'2 3.1
2015-Jan-28 15:33N 59°54' E 010°42'1 1.1
2015-Jan-28 14:33N 59°55' E 010°44'0 0.0
2015-Jan-28 13:31N 59°55' E 010°44'0 0.0
2015-Jan-28 12:31N 59°55' E 010°44'0 0.0
2015-Jan-28 11:31N 59°55' E 010°44'0 0.0
2015-Jan-28 10:31N 59°55' E 010°44'0 0.0
2015-Jan-28 09:31N 59°55' E 010°44'0 0.0
2015-Jan-28 08:33N 59°55' E 010°44'3 2.8
2015-Jan-28 07:31N 59°53' E 010°40'0 0.3
2015-Jan-28 06:29N 59°53' E 010°40'1 0.6
2015-Jan-28 05:31N 59°52' E 010°39'0 0.0
2015-Jan-28 04:31N 59°52' E 010°39'0 0.0
2015-Jan-28 03:25N 59°52' E 010°39'0 0.0
2015-Jan-28 02:22N 59°52' E 010°39'0 0.0
2015-Jan-28 01:28N 59°52' E 010°39'0 0.0
2015-Jan-28 00:10N 59°52' E 010°39'0 0.0
2015-Jan-27 23:25N 59°52' E 010°39'0 0.0
2015-Jan-27 22:13N 59°52' E 010°39'0 0.0
2015-Jan-27 21:16N 59°52' E 010°39'0 0.0
2015-Jan-27 20:28N 59°52' E 010°39'0 0.0
2015-Jan-27 19:16N 59°52' E 010°39'0 0.0
2015-Jan-27 18:28N 59°52' E 010°39'0 0.0
2015-Jan-27 17:30N 59°52' E 010°39'0 0.0
2015-Jan-27 16:25N 59°52' E 010°39'2 2.3
2015-Jan-27 15:33N 59°54' E 010°42'1 1.2
2015-Jan-27 14:34N 59°55' E 010°44'0 0.0
2015-Jan-27 13:29N 59°55' E 010°44'0 0.0
2015-Jan-27 12:29N 59°55' E 010°44'0 0.0
2015-Jan-27 11:14N 59°55' E 010°44'0 0.0
2015-Jan-27 10:32N 59°55' E 010°44'0 0.0
2015-Jan-27 09:32N 59°55' E 010°44'3 2.9
2015-Jan-27 08:33N 59°52' E 010°41'1 0.9
2015-Jan-27 07:31N 59°52' E 010°40'0 0.3
2015-Jan-27 06:29N 59°53' E 010°40'0 0.3
2015-Jan-27 05:17N 59°53' E 010°40'1 1.0
2015-Jan-27 04:21N 59°52' E 010°39'1 0.1
2015-Jan-26 18:16N 59°53' E 010°41'0 0.2
2015-Jan-26 17:17N 59°53' E 010°40'1 1.0
2015-Jan-26 16:32N 59°52' E 010°40'1 1.4
2015-Jan-26 15:31N 59°54' E 010°42'1 1.6
2015-Jan-26 14:33N 59°55' E 010°44'0 0.0
2015-Jan-26 13:33N 59°55' E 010°44'0 0.0
2015-Jan-26 12:06N 59°55' E 010°44'0 0.0
2015-Jan-26 11:33N 59°55' E 010°44'0 0.0
2015-Jan-26 10:24N 59°55' E 010°44'0 0.0
2015-Jan-26 09:21N 59°55' E 010°44'0 0.0
2015-Jan-26 08:27N 59°55' E 010°44'3 2.7
2015-Jan-26 07:29N 59°53' E 010°40'0 0.3
2015-Jan-26 06:27N 59°53' E 010°40'0 0.0
2015-Jan-26 04:03N 59°53' E 010°40'  
2015-Jan-23 14:28N 59°53' E 010°40'1 0.2
2015-Jan-23 11:09N 59°53' E 010°41'1 0.5
2015-Jan-23 10:06N 59°53' E 010°40'0 0.3
2015-Jan-23 09:05N 59°53' E 010°40'0 0.1
2015-Jan-23 07:25N 59°53' E 010°40'1 0.7
2015-Jan-23 06:30N 59°53' E 010°41'1 0.0
2015-Jan-22 18:06N 59°53' E 010°41'0 0.1
2015-Jan-22 17:06N 59°53' E 010°40'0 0.5
2015-Jan-22 16:09N 59°53' E 010°41'0 0.2
2015-Jan-22 15:10N 59°53' E 010°41'1 0.6
2015-Jan-22 14:06N 59°53' E 010°40'0 0.4
2015-Jan-22 13:09N 59°53' E 010°41'2 2.4
2015-Jan-22 12:23N 59°55' E 010°44'0 0.0
2015-Jan-22 11:27N 59°55' E 010°44'1 0.4
2015-Jan-22 09:20N 59°54' E 010°43'1 0.8
2015-Jan-22 08:09N 59°53' E 010°41'0 0.1
2015-Jan-22 07:10N 59°53' E 010°41'2 2.9
2015-Jan-22 06:32N 59°55' E 010°44'0 0.1
2015-Jan-22 05:33N 59°55' E 010°44'3 0.2
2015-Jan-21 16:32N 59°52' E 010°40'0 0.1
2015-Jan-21 15:32N 59°52' E 010°39'  

Dump ship's entire track history